Time;durP1;ratioP1;P1;durP2;ratioP2;P2;SDS_P1;SDS_P2;PMS_P1;PMS_P2;Temp;Humidity;BMP_temperature;BMP_pressure;BME280_temperature;BME280_humidity;BME280_pressure;Samples;Min_cycle;Max_cycle;Signal;HPM_P1;HPM_P2
2023/01/02 00:00:39;;;;;;;;;;;13.10;99.90;;;;;;5005849;28;19929;-73
2023/01/02 00:03:05;;;;;;;;;;;13.10;99.90;;;;;;5008148;28;21035;-73
2023/01/02 00:05:32;;;;;;;;;;;13.00;99.90;;;;;;5010045;28;19948;-73
2023/01/02 00:07:59;;;;;;;;;;;13.00;99.90;;;;;;5025332;28;19925;-73
2023/01/02 00:10:25;;;;;;;;;;;13.00;99.90;;;;;;5017054;28;20894;-73
2023/01/02 00:12:52;;;;;;;;;;;12.90;99.90;;;;;;5019380;28;20292;-73
2023/01/02 00:15:19;;;;;;;;;;;12.90;99.90;;;;;;5025560;28;20090;-73
2023/01/02 00:17:47;;;;;;;;;;;13.00;99.90;;;;;;5020510;28;19925;-73
2023/01/02 00:20:13;;;;;;;;;;;13.00;99.90;;;;;;5025393;28;19937;-73
2023/01/02 00:22:40;;;;;;;;;;;13.00;99.90;;;;;;5024971;28;20019;-73
2023/01/02 00:25:07;;;;;;;;;;;13.00;99.90;;;;;;5018897;28;19931;-73
2023/01/02 00:27:34;;;;;;;;;;;13.00;99.90;;;;;;5023987;28;19933;-71
2023/01/02 00:30:00;;;;;;;;;;;13.00;99.90;;;;;;5028249;28;20023;-73
2023/01/02 00:32:27;;;;;;;;;;;13.00;99.90;;;;;;5015339;28;20366;-70
2023/01/02 00:34:55;;;;;;;;;;;12.90;99.90;;;;;;5023507;28;20388;-72
2023/01/02 00:37:22;;;;;;;;;;;12.90;99.90;;;;;;5018996;28;20391;-72
2023/01/02 00:39:48;;;;;;;;;;;12.90;99.90;;;;;;5022749;28;19925;-72
2023/01/02 00:42:15;;;;;;;;;;;12.80;99.90;;;;;;5029249;28;20008;-72
2023/01/02 00:44:42;;;;;;;;;;;12.80;99.90;;;;;;5020020;28;19925;-71
2023/01/02 00:47:08;;;;;;;;;;;12.80;99.90;;;;;;5020805;28;19929;-71
2023/01/02 00:49:35;;;;;;;;;;;12.80;99.90;;;;;;5017314;28;20372;-72
2023/01/02 00:52:06;;;;;;;;;;;12.80;99.90;;;;;;5024873;28;19932;-75
2023/01/02 00:54:33;;;;;;;;;;;12.70;99.90;;;;;;5021448;28;20008;-74
2023/01/02 00:57:00;;;;;;;;;;;12.70;99.90;;;;;;5021271;28;19929;-73
2023/01/02 00:59:28;;;;;;;;;;;12.80;99.90;;;;;;5018535;28;19932;-74
2023/01/02 01:01:55;;;;;;;;;;;12.70;99.90;;;;;;5018824;28;19939;-74
2023/01/02 01:04:22;;;;;;;;;;;12.70;99.90;;;;;;5014914;28;20012;-75
2023/01/02 01:06:49;;;;;;;;;;;12.80;99.90;;;;;;5018342;28;19925;-75
2023/01/02 01:09:17;;;;;;;;;;;12.80;99.90;;;;;;5018565;28;19925;-74
2023/01/02 01:11:44;;;;;;;;;;;12.80;99.90;;;;;;5023691;28;19933;-75
2023/01/02 01:14:10;;;;;;;;;;;12.80;99.90;;;;;;5016577;28;20315;-74
2023/01/02 01:16:37;;;;;;;;;;;12.80;99.90;;;;;;5018035;28;20291;-74
2023/01/02 01:19:04;;;;;;;;;;;12.70;99.90;;;;;;5018333;28;19964;-75
2023/01/02 01:21:30;;;;;;;;;;;12.70;99.90;;;;;;5020484;28;19961;-74
2023/01/02 01:23:57;;;;;;;;;;;12.70;99.90;;;;;;5018699;28;19933;-74
2023/01/02 01:26:25;;;;;;;;;;;12.70;99.90;;;;;;5016266;28;19925;-73
2023/01/02 01:28:53;;;;;;;;;;;12.70;99.90;;;;;;5011771;28;20023;-76
2023/01/02 01:31:20;;;;;;;;;;;12.70;99.90;;;;;;5016369;28;20315;-73
2023/01/02 01:33:47;;;;;;;;;;;12.70;99.90;;;;;;5014936;28;19933;-73
2023/01/02 01:36:15;;;;;;;;;;;12.70;99.90;;;;;;5016492;28;19925;-74
2023/01/02 01:38:42;;;;;;;;;;;12.80;99.90;;;;;;5015537;28;19925;-74
2023/01/02 01:41:09;;;;;;;;;;;12.80;99.90;;;;;;5020887;28;19953;-73
2023/01/02 01:43:38;;;;;;;;;;;12.80;99.90;;;;;;5012560;28;19925;-71
2023/01/02 01:46:06;;;;;;;;;;;12.80;99.90;;;;;;5019043;28;19936;-70
2023/01/02 01:48:33;;;;;;;;;;;12.80;99.90;;;;;;5018159;28;21406;-71
2023/01/02 01:50:59;;;;;;;;;;;12.80;99.90;;;;;;5015870;28;19936;-73
2023/01/02 01:53:26;;;;;;;;;;;12.70;99.90;;;;;;5019334;28;19933;-74
2023/01/02 01:55:55;;;;;;;;;;;12.70;99.90;;;;;;5020010;28;19988;-73
2023/01/02 01:58:24;;;;;;;;;;;12.80;99.90;;;;;;5017767;28;19933;-73
2023/01/02 02:00:52;;;;;;;;;;;12.80;99.90;;;;;;5015166;28;19932;-74
2023/01/02 02:03:22;;;;;;;;;;;12.80;99.90;;;;;;5016665;28;20273;-74
2023/01/02 02:05:48;;;;;;;;;;;12.70;99.90;;;;;;5021555;28;20352;-74
2023/01/02 02:08:16;;;;;;;;;;;12.70;99.90;;;;;;5023004;28;20023;-74
2023/01/02 02:10:43;;;;;;;;;;;12.70;99.90;;;;;;5015095;28;19925;-74
2023/01/02 02:13:09;;;;;;;;;;;12.60;99.90;;;;;;5021248;28;20282;-74
2023/01/02 02:15:40;;;;;;;;;;;12.60;99.90;;;;;;5024665;28;19932;-74
2023/01/02 02:18:15;;;;;;;;;;;12.60;99.90;;;;;;5021740;28;20380;-74
2023/01/02 02:20:48;;;;;;;;;;;12.60;99.90;;;;;;5017910;28;19925;-73
2023/01/02 02:23:33;;;;;;;;;;;12.60;99.90;;;;;;5021230;28;20367;-73
2023/01/02 02:26:20;;;;;;;;;;;12.60;99.90;;;;;;5016883;28;19925;-72
2023/01/02 02:29:04;;;;;;;;;;;12.60;99.90;;;;;;5015978;28;19932;-72
2023/01/02 02:31:34;;;;;;;;;;;12.60;99.90;;;;;;5015518;28;19953;-72
2023/01/02 02:34:05;;;;;;;;;;;12.50;99.90;;;;;;5017622;28;19929;-72
2023/01/02 02:36:34;;;;;;;;;;;12.50;99.90;;;;;;5019517;28;20381;-72
2023/01/02 02:39:05;;;;;;;;;;;12.50;99.90;;;;;;5016883;28;20008;-72
2023/01/02 02:41:33;;;;;;;;;;;12.50;99.90;;;;;;5019691;28;19933;-71
2023/01/02 02:44:06;;;;;;;;;;;12.50;99.90;;;;;;5020142;28;19947;-71
2023/01/02 02:46:38;;;;;;;;;;;12.50;99.90;;;;;;5021155;28;19925;-72
2023/01/02 02:49:06;;;;;;;;;;;12.50;99.90;;;;;;5013728;28;19925;-72
2023/01/02 02:51:35;;;;;;;;;;;12.50;99.90;;;;;;5017336;28;19931;-72
2023/01/02 02:54:05;;;;;;;;;;;12.50;99.90;;;;;;5017793;28;19935;-72
2023/01/02 02:56:32;;;;;;;;;;;12.50;99.90;;;;;;5021997;28;20387;-73
2023/01/02 02:58:59;;;;;;;;;;;12.50;99.90;;;;;;5019243;28;19931;-72
2023/01/02 03:01:27;;;;;;;;;;;12.50;99.90;;;;;;5018001;28;19952;-72
2023/01/02 03:03:55;;;;;;;;;;;12.50;99.90;;;;;;5020608;28;19933;-72
2023/01/02 03:06:28;;;;;;;;;;;12.50;99.90;;;;;;5020857;28;20372;-73
2023/01/02 03:09:02;;;;;;;;;;;12.50;99.90;;;;;;5021520;28;19931;-72
2023/01/02 03:11:33;;;;;;;;;;;12.50;99.90;;;;;;5017870;28;19929;-72
2023/01/02 03:14:02;;;;;;;;;;;12.40;99.90;;;;;;5020696;28;20004;-72
2023/01/02 03:16:32;;;;;;;;;;;12.50;99.90;;;;;;5017339;28;19952;-73
2023/01/02 03:19:04;;;;;;;;;;;12.40;99.90;;;;;;5018253;28;19929;-72
2023/01/02 03:21:33;;;;;;;;;;;12.50;99.90;;;;;;5020772;28;19928;-72
2023/01/02 03:24:02;;;;;;;;;;;12.50;99.90;;;;;;5015764;28;19933;-72
2023/01/02 03:26:30;;;;;;;;;;;12.50;99.90;;;;;;5018023;28;19926;-73
2023/01/02 03:29:00;;;;;;;;;;;12.50;99.90;;;;;;5014788;28;19925;-72
2023/01/02 03:31:27;;;;;;;;;;;12.50;99.90;;;;;;5015878;28;20414;-73
2023/01/02 03:33:55;;;;;;;;;;;12.50;99.90;;;;;;5016031;28;21922;-74
2023/01/02 03:36:24;;;;;;;;;;;12.50;99.90;;;;;;5017877;28;19933;-72
2023/01/02 03:38:54;;;;;;;;;;;12.60;99.90;;;;;;5017469;28;19937;-71
2023/01/02 03:41:22;;;;;;;;;;;12.60;99.90;;;;;;5017536;28;19939;-72
2023/01/02 03:43:50;;;;;;;;;;;12.60;99.90;;;;;;5023706;28;19943;-71
2023/01/02 03:46:19;;;;;;;;;;;12.60;99.90;;;;;;5019334;28;19929;-72
2023/01/02 03:48:48;;;;;;;;;;;12.50;99.90;;;;;;5024165;28;19932;-71
2023/01/02 03:51:15;;;;;;;;;;;12.60;99.90;;;;;;5015236;28;19957;-71
2023/01/02 03:53:43;;;;;;;;;;;12.50;99.90;;;;;;5016350;28;19925;-72
2023/01/02 03:56:14;;;;;;;;;;;12.50;99.90;;;;;;5025191;28;20291;-70
2023/01/02 03:58:45;;;;;;;;;;;12.50;99.90;;;;;;5022738;28;20008;-71
2023/01/02 04:01:14;;;;;;;;;;;12.50;99.90;;;;;;5014939;28;19951;-70
2023/01/02 04:03:43;;;;;;;;;;;12.50;99.90;;;;;;5015974;28;19926;-71
2023/01/02 04:06:12;;;;;;;;;;;12.50;99.90;;;;;;5018968;28;19936;-73
2023/01/02 04:08:41;;;;;;;;;;;12.50;99.90;;;;;;5017468;28;19975;-74
2023/01/02 04:11:09;;;;;;;;;;;12.50;99.90;;;;;;5022325;28;19925;-73
2023/01/02 04:13:38;;;;;;;;;;;12.60;99.90;;;;;;5021677;28;22627;-73
2023/01/02 04:16:09;;;;;;;;;;;12.60;99.90;;;;;;5017799;28;19931;-73
2023/01/02 04:18:38;;;;;;;;;;;12.50;99.90;;;;;;5013293;28;19932;-73
2023/01/02 04:21:06;;;;;;;;;;;12.50;99.90;;;;;;5015171;28;20019;-74
2023/01/02 04:23:36;;;;;;;;;;;12.50;99.90;;;;;;5016274;28;19931;-72
2023/01/02 04:26:05;;;;;;;;;;;12.50;99.90;;;;;;5017656;28;20307;-72
2023/01/02 04:28:34;;;;;;;;;;;12.50;99.90;;;;;;5013407;28;19925;-72
2023/01/02 04:31:05;;;;;;;;;;;12.50;99.90;;;;;;5011982;28;22259;-72
2023/01/02 04:33:35;;;;;;;;;;;12.50;99.90;;;;;;5013170;28;19987;-72
2023/01/02 04:36:07;;;;;;;;;;;12.50;99.90;;;;;;5019917;28;19951;-71
2023/01/02 04:38:33;;;;;;;;;;;12.50;99.90;;;;;;5014412;28;19929;-72
2023/01/02 04:41:00;;;;;;;;;;;12.50;99.90;;;;;;5015604;28;19932;-72
2023/01/02 04:43:27;;;;;;;;;;;12.40;99.90;;;;;;5014393;28;19936;-73
2023/01/02 04:45:55;;;;;;;;;;;12.40;99.90;;;;;;5015139;28;20043;-72
2023/01/02 04:48:21;;;;;;;;;;;12.40;99.90;;;;;;5014156;28;19933;-73
2023/01/02 04:50:48;;;;;;;;;;;12.30;99.90;;;;;;5017683;28;19931;-72
2023/01/02 04:53:15;;;;;;;;;;;12.30;99.90;;;;;;5020946;28;19979;-72
2023/01/02 04:55:42;;;;;;;;;;;12.30;99.90;;;;;;5019591;28;20032;-72
2023/01/02 04:58:08;;;;;;;;;;;12.30;99.90;;;;;;5019029;28;20410;-73
2023/01/02 05:00:35;;;;;;;;;;;12.20;99.90;;;;;;5020870;28;19968;-73
2023/01/02 05:03:03;;;;;;;;;;;12.20;99.90;;;;;;5015849;28;19939;-72
2023/01/02 05:05:30;;;;;;;;;;;12.30;99.90;;;;;;5016137;28;19931;-72
2023/01/02 05:07:57;;;;;;;;;;;12.20;99.90;;;;;;5019409;28;19936;-73
2023/01/02 05:10:24;;;;;;;;;;;12.20;99.90;;;;;;5014387;28;19925;-73
2023/01/02 05:12:51;;;;;;;;;;;12.10;99.90;;;;;;5015601;28;19935;-72
2023/01/02 05:15:17;;;;;;;;;;;12.10;99.90;;;;;;5018512;28;20591;-72
2023/01/02 05:17:44;;;;;;;;;;;12.10;99.90;;;;;;5012035;28;19940;-72
2023/01/02 05:20:12;;;;;;;;;;;12.10;99.90;;;;;;5019774;28;19933;-72
2023/01/02 05:25:24;;;;;;;;;;;12.10;99.90;;;;;;5015247;28;19940;-72
2023/01/02 05:27:51;;;;;;;;;;;12.00;99.90;;;;;;5015382;28;20007;-71
2023/01/02 05:30:18;;;;;;;;;;;11.90;99.90;;;;;;5015211;28;20578;-72
2023/01/02 05:32:45;;;;;;;;;;;11.70;99.90;;;;;;5013632;28;20249;-72
2023/01/02 05:35:13;;;;;;;;;;;11.60;99.90;;;;;;5014912;28;20668;-72
2023/01/02 05:37:39;;;;;;;;;;;11.50;99.90;;;;;;5015064;28;19933;-73
2023/01/02 05:40:06;;;;;;;;;;;11.40;99.90;;;;;;5018668;28;19931;-73
2023/01/02 05:42:33;;;;;;;;;;;11.20;99.90;;;;;;5019565;28;20383;-74
2023/01/02 05:45:00;;;;;;;;;;;11.10;99.90;;;;;;5017207;28;19933;-73
2023/01/02 05:47:26;;;;;;;;;;;11.00;99.90;;;;;;5019836;28;19931;-73
2023/01/02 05:49:53;;;;;;;;;;;11.00;99.90;;;;;;5019341;28;20012;-74
2023/01/02 05:52:21;;;;;;;;;;;10.90;99.90;;;;;;5018275;28;20687;-74
2023/01/02 05:54:48;;;;;;;;;;;10.90;99.90;;;;;;5018803;28;20015;-73
2023/01/02 05:57:15;;;;;;;;;;;10.90;99.90;;;;;;5016220;28;19957;-74
2023/01/02 05:59:42;;;;;;;;;;;10.80;99.90;;;;;;5015777;28;20064;-74
2023/01/02 06:02:08;;;;;;;;;;;10.80;99.90;;;;;;5016893;28;20092;-74
2023/01/02 06:04:35;;;;;;;;;;;10.80;99.90;;;;;;5016550;28;19931;-74
2023/01/02 06:07:01;;;;;;;;;;;10.80;99.90;;;;;;5018049;28;19933;-74
2023/01/02 06:09:29;;;;;;;;;;;10.80;99.90;;;;;;5016861;28;19925;-74
2023/01/02 06:11:56;;;;;;;;;;;10.80;99.90;;;;;;5013418;28;20633;-73
2023/01/02 06:14:23;;;;;;;;;;;10.70;99.90;;;;;;5019437;28;20427;-74
2023/01/02 06:16:50;;;;;;;;;;;10.60;99.90;;;;;;5018461;28;20225;-74
2023/01/02 06:19:17;;;;;;;;;;;10.60;99.90;;;;;;5014888;28;19933;-74
2023/01/02 06:21:43;;;;;;;;;;;10.60;99.90;;;;;;5017387;28;20004;-74
2023/01/02 06:24:10;;;;;;;;;;;10.60;99.90;;;;;;5013943;28;19983;-73
2023/01/02 06:26:38;;;;;;;;;;;10.50;99.90;;;;;;5015685;28;19963;-74
2023/01/02 06:29:05;;;;;;;;;;;10.50;99.90;;;;;;5015213;28;19943;-74
2023/01/02 06:31:32;;;;;;;;;;;10.40;99.90;;;;;;5018359;28;20009;-74
2023/01/02 06:33:59;;;;;;;;;;;10.40;99.90;;;;;;5018394;28;19939;-73
2023/01/02 06:36:26;;;;;;;;;;;10.30;99.90;;;;;;5016505;28;20023;-73
2023/01/02 06:38:53;;;;;;;;;;;10.30;99.90;;;;;;5020126;28;19964;-73
2023/01/02 06:41:20;;;;;;;;;;;10.30;99.90;;;;;;5022924;28;19925;-73
2023/01/02 06:43:48;;;;;;;;;;;10.30;99.90;;;;;;5024818;28;19964;-73
2023/01/02 06:46:16;;;;;;;;;;;10.30;99.90;;;;;;5019294;28;19926;-73
2023/01/02 06:48:44;;;;;;;;;;;10.20;99.90;;;;;;5020358;28;19939;-73
2023/01/02 06:51:13;;;;;;;;;;;10.20;99.90;;;;;;5030109;28;19930;-72
2023/01/02 06:53:41;;;;;;;;;;;10.20;99.90;;;;;;5021809;28;19929;-73
2023/01/02 06:56:08;;;;;;;;;;;10.20;99.90;;;;;;5016915;28;19931;-73
2023/01/02 06:58:36;;;;;;;;;;;10.20;99.90;;;;;;5020403;28;20272;-74
2023/01/02 07:01:06;;;;;;;;;;;10.20;99.90;;;;;;5019598;28;19952;-72
2023/01/02 07:03:34;;;;;;;;;;;10.20;99.90;;;;;;5018585;28;20548;-73
2023/01/02 07:06:01;;;;;;;;;;;10.20;99.90;;;;;;5016390;28;20272;-72
2023/01/02 07:08:31;;;;;;;;;;;10.10;99.90;;;;;;5020891;28;19925;-74
2023/01/02 07:11:05;;;;;;;;;;;10.10;99.90;;;;;;5018986;28;20012;-74
2023/01/02 07:13:32;;;;;;;;;;;10.10;99.90;;;;;;5020927;28;19929;-75
2023/01/02 07:16:01;;;;;;;;;;;10.10;99.90;;;;;;5021105;28;19929;-76
2023/01/02 07:18:30;;;;;;;;;;;10.10;99.90;;;;;;5015874;28;19933;-75
2023/01/02 07:20:57;;;;;;;;;;;10.10;99.90;;;;;;5022751;28;20024;-74
2023/01/02 07:23:24;;;;;;;;;;;10.10;99.90;;;;;;5016192;28;19929;-73
2023/01/02 07:25:52;;;;;;;;;;;10.00;99.90;;;;;;5019721;28;19929;-74
2023/01/02 07:28:19;;;;;;;;;;;10.00;99.90;;;;;;5020108;28;20020;-74
2023/01/02 07:30:46;;;;;;;;;;;10.00;99.90;;;;;;5018684;28;20456;-76
2023/01/02 07:33:13;;;;;;;;;;;9.90;99.90;;;;;;5021829;28;19932;-74
2023/01/02 07:35:42;;;;;;;;;;;9.90;99.90;;;;;;5019588;28;19941;-75
2023/01/02 07:38:10;;;;;;;;;;;9.90;99.90;;;;;;5020739;28;19943;-74
2023/01/02 07:40:39;;;;;;;;;;;9.90;99.90;;;;;;5017987;28;19925;-74
2023/01/02 07:43:06;;;;;;;;;;;9.90;99.90;;;;;;5019112;28;20277;-75
2023/01/02 07:45:33;;;;;;;;;;;9.80;99.90;;;;;;5021147;28;19933;-73
2023/01/02 07:48:00;;;;;;;;;;;9.80;99.90;;;;;;5022272;28;20402;-75
2023/01/02 07:50:27;;;;;;;;;;;9.80;99.90;;;;;;5021526;28;19936;-74
2023/01/02 07:52:56;;;;;;;;;;;9.80;99.90;;;;;;5024436;28;19925;-74
2023/01/02 07:55:23;;;;;;;;;;;9.80;99.90;;;;;;5017566;28;19925;-75
2023/01/02 07:57:50;;;;;;;;;;;9.70;99.90;;;;;;5018976;28;20262;-73
2023/01/02 08:00:17;;;;;;;;;;;9.80;99.90;;;;;;5019029;28;19947;-73
2023/01/02 08:02:43;;;;;;;;;;;9.70;99.90;;;;;;5020592;28;19925;-74
2023/01/02 08:05:10;;;;;;;;;;;9.70;99.90;;;;;;5016370;28;20023;-79
2023/01/02 08:07:37;;;;;;;;;;;9.70;99.90;;;;;;5026077;28;20381;-75
2023/01/02 08:10:05;;;;;;;;;;;9.70;99.90;;;;;;5020171;28;20260;-74
2023/01/02 08:12:32;;;;;;;;;;;9.70;99.90;;;;;;5018033;28;20337;-73
2023/01/02 08:14:59;;;;;;;;;;;9.70;99.90;;;;;;5013876;28;20500;-75
2023/01/02 08:17:25;;;;;;;;;;;9.60;99.90;;;;;;5017667;28;19939;-73
2023/01/02 08:19:52;;;;;;;;;;;9.70;99.90;;;;;;5018627;28;20452;-73
2023/01/02 08:22:19;;;;;;;;;;;9.70;99.90;;;;;;5015656;28;19925;-74
2023/01/02 08:24:45;;;;;;;;;;;9.70;99.90;;;;;;5021244;28;20022;-74
2023/01/02 08:27:13;;;;;;;;;;;9.60;99.90;;;;;;5017504;28;19929;-73
2023/01/02 08:29:40;;;;;;;;;;;9.70;99.90;;;;;;5022114;28;20016;-73
2023/01/02 08:32:07;;;;;;;;;;;9.70;99.90;;;;;;5023269;28;19936;-73
2023/01/02 08:34:54;;;;;;;;;;;9.70;99.90;;;;;;5021848;28;20333;-73
2023/01/02 08:37:21;;;;;;;;;;;9.80;99.90;;;;;;5020748;28;20003;-73
2023/01/02 08:39:47;;;;;;;;;;;9.80;99.90;;;;;;5012834;28;19933;-74
2023/01/02 08:42:16;;;;;;;;;;;9.80;99.90;;;;;;5009691;28;19931;-74
2023/01/02 08:44:42;;;;;;;;;;;9.80;99.90;;;;;;5010390;28;19952;-74
2023/01/02 08:47:09;;;;;;;;;;;9.90;99.90;;;;;;5011297;28;20012;-75
2023/01/02 08:49:36;;;;;;;;;;;9.90;99.90;;;;;;5022092;28;19940;-73
2023/01/02 08:52:03;;;;;;;;;;;9.90;99.90;;;;;;5018109;28;19933;-74
2023/01/02 08:54:29;;;;;;;;;;;9.90;99.90;;;;;;5015048;28;19925;-74
2023/01/02 08:56:56;;;;;;;;;;;9.90;99.90;;;;;;5014973;28;19932;-74
2023/01/02 08:59:25;;;;;;;;;;;9.90;99.90;;;;;;5016534;28;20016;-75
2023/01/02 09:01:51;;;;;;;;;;;9.90;99.90;;;;;;5019000;28;19925;-74
2023/01/02 09:04:18;;;;;;;;;;;9.90;99.90;;;;;;5013165;28;20031;-74
2023/01/02 09:06:45;;;;;;;;;;;10.00;99.90;;;;;;5022889;28;20019;-73
2023/01/02 09:09:13;;;;;;;;;;;10.00;99.90;;;;;;5018449;28;19957;-74
2023/01/02 09:11:42;;;;;;;;;;;9.90;99.90;;;;;;5020232;28;19931;-75
2023/01/02 09:14:09;;;;;;;;;;;9.90;99.90;;;;;;5010929;28;19926;-73
2023/01/02 09:16:37;;;;;;;;;;;9.90;99.90;;;;;;5019374;28;20003;-74
2023/01/02 09:19:03;;;;;;;;;;;9.90;99.90;;;;;;5007036;28;19950;-73
2023/01/02 09:21:30;;;;;;;;;;;9.90;99.90;;;;;;5020602;28;20003;-73
2023/01/02 09:23:57;;;;;;;;;;;9.90;99.90;;;;;;5014877;28;19943;-73
2023/01/02 09:26:24;;;;;;;;;;;9.90;99.90;;;;;;5016042;28;20015;-73
2023/01/02 09:28:50;;;;;;;;;;;9.90;99.90;;;;;;5014920;28;19933;-74
2023/01/02 09:31:17;;;;;;;;;;;9.90;99.90;;;;;;5018490;28;20019;-73
2023/01/02 09:33:46;;;;;;;;;;;10.00;99.90;;;;;;5016134;28;19930;-73
2023/01/02 09:36:17;;;;;;;;;;;10.00;99.90;;;;;;5015945;28;19955;-74
2023/01/02 09:38:44;;;;;;;;;;;10.10;99.90;;;;;;5014922;28;20019;-73
2023/01/02 09:41:21;;;;;;;;;;;10.10;99.90;;;;;;5014488;28;19925;-73
2023/01/02 09:43:51;;;;;;;;;;;10.10;99.90;;;;;;5008962;28;20027;-73
2023/01/02 09:46:21;;;;;;;;;;;10.10;99.90;;;;;;5012805;28;19925;-74
2023/01/02 09:48:49;;;;;;;;;;;10.20;99.90;;;;;;5012713;28;20077;-75
2023/01/02 09:51:16;;;;;;;;;;;10.20;99.90;;;;;;5010452;28;20360;-73
2023/01/02 09:53:42;;;;;;;;;;;10.20;99.90;;;;;;5010974;28;20367;-76
2023/01/02 09:56:11;;;;;;;;;;;10.20;99.90;;;;;;5011505;28;19925;-76
2023/01/02 09:58:41;;;;;;;;;;;10.20;99.90;;;;;;5009410;28;19945;-75
2023/01/02 10:01:17;;;;;;;;;;;10.20;99.90;;;;;;5013049;28;22381;-77
2023/01/02 10:03:47;;;;;;;;;;;10.20;99.90;;;;;;5018788;28;20319;-75
2023/01/02 10:06:17;;;;;;;;;;;10.20;99.90;;;;;;5014457;28;19984;-75
2023/01/02 10:08:47;;;;;;;;;;;10.30;99.90;;;;;;5011966;28;19925;-75
2023/01/02 10:11:23;;;;;;;;;;;10.30;99.90;;;;;;5002335;28;19925;-75
2023/01/02 10:13:53;;;;;;;;;;;10.30;99.90;;;;;;5013765;28;19991;-72
2023/01/02 10:16:22;;;;;;;;;;;10.20;99.90;;;;;;5016969;28;19943;-74
2023/01/02 10:18:50;;;;;;;;;;;10.30;99.90;;;;;;5020121;28;20011;-75
2023/01/02 10:21:20;;;;;;;;;;;10.30;99.90;;;;;;5021118;28;20024;-74
2023/01/02 10:23:49;;;;;;;;;;;10.30;99.90;;;;;;5015586;28;20364;-74
2023/01/02 10:26:20;;;;;;;;;;;10.40;99.90;;;;;;5019247;28;20008;-75
2023/01/02 10:28:51;;;;;;;;;;;10.40;99.90;;;;;;5019193;28;20020;-73
2023/01/02 10:31:21;;;;;;;;;;;10.50;99.90;;;;;;5017532;28;19925;-75
2023/01/02 10:33:50;;;;;;;;;;;10.60;99.90;;;;;;5022936;28;20020;-76
2023/01/02 10:36:33;;;;;;;;;;;10.70;99.90;;;;;;5016530;28;20316;-75
2023/01/02 10:39:03;;;;;;;;;;;10.70;99.90;;;;;;5017795;28;19925;-77
2023/01/02 10:41:30;;;;;;;;;;;10.70;99.90;;;;;;5021327;28;19925;-76
2023/01/02 10:43:59;;;;;;;;;;;10.70;99.90;;;;;;5023433;28;19971;-74
2023/01/02 10:46:28;;;;;;;;;;;10.70;99.90;;;;;;5021898;28;19925;-76
2023/01/02 10:48:55;;;;;;;;;;;10.70;99.90;;;;;;5014094;28;19933;-75
2023/01/02 10:51:22;;;;;;;;;;;10.60;99.90;;;;;;5017701;28;20019;-74
2023/01/02 10:54:00;;;;;;;;;;;10.60;99.90;;;;;;5019018;28;20295;-74
2023/01/02 10:56:30;;;;;;;;;;;10.60;99.90;;;;;;5018391;28;20036;-75
2023/01/02 10:58:56;;;;;;;;;;;10.60;99.90;;;;;;5017250;28;20463;-75
2023/01/02 11:01:23;;;;;;;;;;;10.50;99.90;;;;;;5016652;28;19925;-75
2023/01/02 11:04:14;;;;;;;;;;;10.60;99.90;;;;;;5016768;28;20024;-74
2023/01/02 11:06:50;;;;;;;;;;;10.50;99.90;;;;;;5014975;28;20442;-75
2023/01/02 11:09:20;;;;;;;;;;;10.50;99.90;;;;;;5015244;28;20398;-74
2023/01/02 11:11:51;;;;;;;;;;;10.40;99.90;;;;;;5020109;28;19925;-75
2023/01/02 11:14:21;;;;;;;;;;;10.50;99.90;;;;;;5012693;28;20513;-75
2023/01/02 11:16:47;;;;;;;;;;;10.50;99.90;;;;;;5016692;28;20384;-75
2023/01/02 11:19:17;;;;;;;;;;;10.50;99.90;;;;;;5015491;28;19925;-75
2023/01/02 11:21:45;;;;;;;;;;;10.50;99.90;;;;;;5016622;28;20388;-75
2023/01/02 11:24:15;;;;;;;;;;;10.50;99.90;;;;;;5008619;28;19937;-75
2023/01/02 11:26:44;;;;;;;;;;;10.50;99.90;;;;;;5016173;28;20311;-75
2023/01/02 11:29:14;;;;;;;;;;;10.50;99.90;;;;;;5009998;28;20900;-75
2023/01/02 11:31:43;;;;;;;;;;;10.50;99.90;;;;;;5015903;28;19929;-75
2023/01/02 11:34:17;;;;;;;;;;;10.50;99.90;;;;;;5030040;28;20020;-75
2023/01/02 11:36:44;;;;;;;;;;;10.60;99.90;;;;;;5023103;28;19932;-75
2023/01/02 11:39:21;;;;;;;;;;;10.60;99.90;;;;;;5021406;28;19929;-77
2023/01/02 11:44:49;;;;;;;;;;;10.70;99.90;;;;;;5023464;28;19932;-75
2023/01/02 11:47:16;;;;;;;;;;;10.70;99.90;;;;;;5011641;28;19979;-75
2023/01/02 11:49:44;;;;;;;;;;;10.60;99.90;;;;;;5010481;28;19926;-75
2023/01/02 11:52:13;;;;;;;;;;;10.60;99.90;;;;;;5012820;28;19969;-76
2023/01/02 11:54:43;;;;;;;;;;;10.60;99.90;;;;;;5014491;28;19933;-74
2023/01/02 11:57:16;;;;;;;;;;;10.60;99.90;;;;;;5012464;28;19933;-74
2023/01/02 11:59:46;;;;;;;;;;;10.60;99.90;;;;;;5008059;28;19937;-75
2023/01/02 12:02:15;;;;;;;;;;;10.60;99.90;;;;;;5010536;28;20300;-75
2023/01/02 12:04:42;;;;;;;;;;;10.60;99.90;;;;;;5010778;28;19933;-75
2023/01/02 12:07:17;;;;;;;;;;;10.60;99.90;;;;;;5012677;28;20012;-74
2023/01/02 12:09:50;;;;;;;;;;;10.60;99.90;;;;;;5008641;28;19933;-74
2023/01/02 12:12:30;;;;;;;;;;;10.60;99.90;;;;;;5011382;28;19961;-75
2023/01/02 12:15:18;;;;;;;;;;;10.50;99.90;;;;;;5011882;28;19982;-75
2023/01/02 12:17:50;;;;;;;;;;;10.50;99.90;;;;;;5014949;28;19929;-75
2023/01/02 12:20:28;;;;;;;;;;;10.60;99.90;;;;;;5010971;28;19940;-73
2023/01/02 12:23:09;;;;;;;;;;;10.50;99.90;;;;;;5011903;28;20020;-74
2023/01/02 12:25:44;;;;;;;;;;;10.50;99.90;;;;;;4976885;28;19956;-75
2023/01/02 12:28:19;;;;;;;;;;;10.50;99.90;;;;;;5014223;28;20027;-75
2023/01/02 12:30:49;;;;;;;;;;;10.50;99.90;;;;;;5014122;28;19933;-76
2023/01/02 12:33:27;;;;;;;;;;;10.60;99.90;;;;;;5016698;28;19925;-75
2023/01/02 12:36:08;;;;;;;;;;;10.60;99.90;;;;;;5008405;28;19929;-74
2023/01/02 12:38:43;;;;;;;;;;;10.60;99.90;;;;;;5016525;28;19929;-76
2023/01/02 12:41:17;;;;;;;;;;;10.70;99.90;;;;;;5018685;28;20536;-74
2023/01/02 12:44:01;;;;;;;;;;;10.80;99.90;;;;;;5020178;28;19931;-74
2023/01/02 12:46:39;;;;;;;;;;;10.70;99.90;;;;;;5015692;28;19984;-73
2023/01/02 12:49:16;;;;;;;;;;;10.60;99.90;;;;;;5023128;28;19983;-75
2023/01/02 12:51:47;;;;;;;;;;;10.60;99.90;;;;;;5025627;28;19925;-74
2023/01/02 12:54:24;;;;;;;;;;;10.50;99.90;;;;;;5021021;28;19931;-75
2023/01/02 12:56:56;;;;;;;;;;;10.50;99.90;;;;;;5021466;28;20304;-75
2023/01/02 12:59:33;;;;;;;;;;;10.40;99.90;;;;;;5009204;28;20082;-74
2023/01/02 13:02:02;;;;;;;;;;;10.20;99.90;;;;;;5013551;28;19932;-75
2023/01/02 13:04:31;;;;;;;;;;;10.00;99.90;;;;;;5011150;28;19925;-75
2023/01/02 13:07:00;;;;;;;;;;;9.80;99.90;;;;;;5013376;28;20024;-74
2023/01/02 13:09:28;;;;;;;;;;;9.80;99.90;;;;;;5008977;28;19965;-75
2023/01/02 13:11:58;;;;;;;;;;;9.80;99.90;;;;;;5017523;28;19939;-75
2023/01/02 13:14:27;;;;;;;;;;;9.90;99.90;;;;;;5016079;28;19925;-74
2023/01/02 13:16:58;;;;;;;;;;;9.90;99.90;;;;;;5015699;28;19932;-74
2023/01/02 13:19:29;;;;;;;;;;;9.90;99.90;;;;;;5010979;28;19936;-74
2023/01/02 13:21:59;;;;;;;;;;;10.00;99.90;;;;;;5014642;28;19935;-73
2023/01/02 13:24:26;;;;;;;;;;;10.00;99.90;;;;;;5016738;28;20407;-75
2023/01/02 13:26:54;;;;;;;;;;;10.00;99.90;;;;;;5015046;28;20345;-75
2023/01/02 13:29:39;;;;;;;;;;;9.90;99.90;;;;;;5019519;28;19933;-74
2023/01/02 13:32:09;;;;;;;;;;;9.80;99.90;;;;;;5016132;28;19925;-74
2023/01/02 13:34:39;;;;;;;;;;;9.80;99.90;;;;;;5018837;28;20008;-73
2023/01/02 13:37:07;;;;;;;;;;;9.70;99.90;;;;;;5016577;28;19936;-74
2023/01/02 13:39:45;;;;;;;;;;;9.60;99.90;;;;;;5017281;28;20545;-74
2023/01/02 13:45:09;;;;;;;;;;;9.60;99.90;;;;;;4999088;28;19936;-75
2023/01/02 13:47:38;;;;;;;;;;;9.70;99.90;;;;;;5013321;28;19940;-75
2023/01/02 13:50:08;;;;;;;;;;;9.60;99.90;;;;;;5017432;28;19932;-75
2023/01/02 13:52:35;;;;;;;;;;;9.70;99.90;;;;;;5011865;28;19933;-74
2023/01/02 13:55:29;;;;;;;;;;;9.70;99.90;;;;;;5017568;28;20292;-74
2023/01/02 13:58:16;;;;;;;;;;;9.70;99.90;;;;;;5015646;28;19931;-74
2023/01/02 14:00:44;;;;;;;;;;;9.70;99.90;;;;;;5016337;28;19948;-74
2023/01/02 14:03:33;;;;;;;;;;;9.70;99.90;;;;;;5015431;28;19933;-74
2023/01/02 14:06:02;;;;;;;;;;;9.70;99.90;;;;;;5019520;28;19936;-75
2023/01/02 14:08:29;;;;;;;;;;;9.50;99.90;;;;;;5014810;28;19980;-75
2023/01/02 14:10:58;;;;;;;;;;;9.50;99.90;;;;;;5011113;28;19935;-71
2023/01/02 14:13:28;;;;;;;;;;;9.40;99.90;;;;;;5012814;28;20657;-75
2023/01/02 14:16:16;;;;;;;;;;;9.30;99.90;;;;;;5014314;28;20317;-74
2023/01/02 14:18:45;;;;;;;;;;;9.40;99.90;;;;;;5015092;28;20352;-74
2023/01/02 14:21:12;;;;;;;;;;;9.40;99.90;;;;;;5011035;28;19929;-76
2023/01/02 14:23:40;;;;;;;;;;;9.40;99.90;;;;;;5014790;28;19933;-74
2023/01/02 14:26:21;;;;;;;;;;;9.50;99.90;;;;;;5018512;28;19925;-75
2023/01/02 14:28:50;;;;;;;;;;;9.60;99.90;;;;;;5014852;28;19929;-74
2023/01/02 14:31:18;;;;;;;;;;;9.70;99.90;;;;;;5013255;28;19980;-74
2023/01/02 14:33:52;;;;;;;;;;;9.60;99.90;;;;;;5014125;28;19984;-74
2023/01/02 14:36:19;;;;;;;;;;;9.60;99.90;;;;;;5019699;28;19925;-75
2023/01/02 14:38:53;;;;;;;;;;;9.60;99.90;;;;;;5011257;28;20489;-75
2023/01/02 14:44:19;;;;;;;;;;;9.50;99.90;;;;;;5019085;28;19933;-74